Spencer, WI

10:05 PM CDT on July 25, 2016 (GMT -0500)
Marshfield Municipal | | Change Station

Elev 1276 ft 44.64 °N, 90.19 °W | Updated 11 minutes ago

Clear
Clear
70 °F
Feels Like 70 °F
N
6
Wind Variable Wind from West

Today
High -- | Low -- °F
--% Chance of Precip.
Yesterday
High -- | Low -- °F
Precip. -- in
Pressure 30.03 in
Visibility 10.0 miles
Clouds Clear
Dew Point 62 °F
Humidity 76%
Rainfall 0.00 in
Snow Depth Not available.
5:40 AM 8:34 PM
Waning Gibbous, 59% visible
METAR KMFI 260254Z AUTO 27005KT 10SM CLR 21/17 A3004 RMK AO2 SLP167 T02110167 53007
Pressure 30.03 in
Visibility 10.0 miles
Clouds Clear
Dew Point 62 °F
Humidity 76%
Rainfall 0.00 in
Snow Depth Not available.
5:40 AM 8:34 PM
Waning Gibbous, 59% visible
METAR KMFI 260254Z AUTO 27005KT 10SM CLR 21/17 A3004 RMK AO2 SLP167 T02110167 53007

10-Day Weather Forecast

Almanac

Astronomy

Jul. 25, 2016 Rise Set
Actual Time
Civil Twilight
Nautical Twilight
Astronomical Twilight
Moon
Length of Visible Light
Length of Day
Tomorrow will be .
, % of the Moon is Illuminated

Today's Extremes

State Highs State Lows

Community

WunderPhotos

Upload Photos

1,927,514 photos uploaded!

WunderBlog® & News

Nearby

Air Quality

  Air Quality AQ Index Pollutant
Not available.

Snow Depth

Station Depth Elevation

Earthquake Activity

City Distance Mag. Time & Date
Minimum magnitude displayed is 2.5.

Coastal Water Temperatures

Place Temperature

Stations

Nearby Weather Stations

Station Location Temp. Windchill Dew Point Humidity Wind Precip. Elev Updated Type
                   

Watches & Warnings

There are currently no watches in effect.